Time;durP1;ratioP1;P1;durP2;ratioP2;P2;SDS_P1;SDS_P2;PMS_P1;PMS_P2;Temp;Humidity;BMP_temperature;BMP_pressure;BME280_temperature;BME280_humidity;BME280_pressure;Samples;Min_cycle;Max_cycle;Signal;HPM_P1;HPM_P2
2021/07/08 06:41:22;;;;;;;9.75;3.47;;;;;;;17.22;100.00;99346.06;5172791;27;20383;-79
2021/07/08 06:43:49;;;;;;;8.77;3.20;;;;;;;17.40;100.00;99364.50;5170974;27;20091;-81
2021/07/08 06:46:17;;;;;;;4.40;3.13;;;;;;;17.49;100.00;99343.09;5171342;27;20046;-79
2021/07/08 06:48:45;;;;;;;10.50;3.40;;;;;;;17.62;100.00;99350.38;5170934;27;20055;-79
2021/07/08 06:51:12;;;;;;;5.20;3.83;;;;;;;17.82;100.00;99348.25;5170866;27;20347;-79
2021/07/08 06:53:39;;;;;;;8.95;3.22;;;;;;;17.83;99.29;99335.34;5171032;27;20050;-79
2021/07/08 06:56:06;;;;;;;8.80;3.10;;;;;;;17.89;97.55;99336.34;5170633;27;20370;-79
2021/07/08 06:58:34;;;;;;;7.93;3.67;;;;;;;17.94;95.65;99336.53;5171161;27;20114;-79
2021/07/08 07:01:01;;;;;;;9.43;3.38;;;;;;;18.00;95.76;99319.94;5171060;27;20054;-79
2021/07/08 07:03:27;;;;;;;5.40;3.03;;;;;;;18.06;95.50;99309.94;5170192;27;20054;-79
2021/07/08 07:05:54;;;;;;;5.32;2.72;;;;;;;18.08;93.81;99306.94;5170820;27;20375;-79
2021/07/08 07:08:21;;;;;;;5.00;2.67;;;;;;;18.11;95.11;99317.50;5171072;27;20046;-80
2021/07/08 07:10:48;;;;;;;5.03;2.47;;;;;;;18.09;94.32;99327.91;5171071;27;20095;-79
2021/07/08 07:13:14;;;;;;;5.00;2.45;;;;;;;18.06;95.96;99320.09;5169927;27;20513;-79
2021/07/08 07:15:43;;;;;;;7.28;2.50;;;;;;;17.99;95.59;99317.41;5170778;27;20043;-80
2021/07/08 07:18:10;;;;;;;5.32;2.30;;;;;;;17.94;96.64;99312.59;5170902;27;20046;-80
2021/07/08 07:20:37;;;;;;;4.10;2.97;;;;;;;17.87;97.16;99314.59;5170883;27;20047;-79
2021/07/08 07:23:04;;;;;;;3.42;2.45;;;;;;;17.87;97.46;99314.59;5170549;27;20042;-80
2021/07/08 07:25:31;;;;;;;6.50;2.60;;;;;;;17.90;96.83;99319.66;5169112;27;20054;-79
2021/07/08 07:27:58;;;;;;;6.72;2.53;;;;;;;17.98;98.08;99335.84;5156176;27;20374;-79
2021/07/08 07:30:27;;;;;;;4.18;2.70;;;;;;;17.95;98.22;99340.97;5170567;27;20039;-79
2021/07/08 07:32:56;;;;;;;5.50;3.05;;;;;;;17.93;97.89;99351.34;5170315;27;20042;-79
2021/07/08 07:35:23;;;;;;;7.72;3.00;;;;;;;17.97;97.56;99333.31;5170164;27;20055;-79
2021/07/08 07:37:50;;;;;;;6.60;3.13;;;;;;;18.16;97.42;99335.00;5169050;27;20046;-80
2021/07/08 07:40:18;;;;;;;3.80;2.85;;;;;;;18.44;95.52;99339.09;5169859;27;20133;-79
2021/07/08 07:42:45;;;;;;;9.23;2.53;;;;;;;18.73;94.21;99334.66;5170185;27;20107;-80
2021/07/08 07:45:13;;;;;;;6.78;2.85;;;;;;;18.74;90.12;99310.69;5169425;27;20047;-80
2021/07/08 07:47:40;;;;;;;6.20;3.10;;;;;;;19.03;90.56;99317.28;5169470;27;20050;-80
2021/07/08 07:50:09;;;;;;;4.85;2.80;;;;;;;19.07;89.36;99318.50;5170473;27;20054;-80
2021/07/08 07:52:36;;;;;;;6.60;2.50;;;;;;;19.06;90.59;99318.75;5156018;27;20043;-80
2021/07/08 07:55:04;;;;;;;8.23;2.72;;;;;;;19.02;89.75;99312.00;5156242;27;20058;-81
2021/07/08 07:57:32;;;;;;;4.57;2.90;;;;;;;18.95;90.69;99316.78;5155361;27;20050;-79
2021/07/08 07:59:59;;;;;;;4.93;2.60;;;;;;;18.92;92.12;99318.09;5156343;27;20051;-79
2021/07/08 08:02:26;;;;;;;7.45;2.83;;;;;;;18.96;92.44;99313.78;5155922;27;20091;-79
2021/07/08 08:05:08;;;;;;;5.18;2.65;;;;;;;19.10;91.04;99306.16;5155654;27;20050;-78
2021/07/08 08:10:20;;;;;;;8.27;3.15;;;;;;;19.23;90.30;99316.94;5155850;27;20155;-80
2021/07/08 08:12:48;;;;;;;5.70;2.65;;;;;;;19.14;87.26;99293.59;5155983;27;20046;-80
2021/07/08 08:15:15;;;;;;;4.85;2.20;;;;;;;19.33;88.60;99316.38;5155204;27;20556;-80
2021/07/08 08:17:42;;;;;;;4.45;2.40;;;;;;;19.58;85.32;99316.13;5155857;27;20051;-80
2021/07/08 08:20:10;;;;;;;5.57;2.22;;;;;;;19.69;86.78;99328.25;5155323;27;20444;-80
2021/07/08 08:22:40;;;;;;;7.50;2.80;;;;;;;19.83;86.82;99328.00;5155812;27;20050;-80
2021/07/08 08:25:11;;;;;;;14.38;2.88;;;;;;;19.78;84.52;99337.00;5155469;27;20042;-81
2021/07/08 08:27:39;;;;;;;4.88;2.53;;;;;;;19.78;85.57;99325.97;5154802;27;20050;-80
2021/07/08 08:30:07;;;;;;;8.43;2.83;;;;;;;19.71;87.55;99323.31;5155577;27;20042;-80
2021/07/08 08:32:36;;;;;;;6.05;2.35;;;;;;;19.77;88.18;99314.09;5155311;27;20043;-80
2021/07/08 08:35:03;;;;;;;5.65;2.22;;;;;;;19.85;87.84;99317.59;5155406;27;20458;-80
2021/07/08 08:37:30;;;;;;;5.32;2.88;;;;;;;19.84;87.09;99308.44;5155206;27;20409;-81
2021/07/08 08:39:58;;;;;;;4.20;2.42;;;;;;;19.85;86.48;99309.31;5155122;27;20451;-80
2021/07/08 08:42:27;;;;;;;15.90;2.83;;;;;;;19.89;86.14;99297.53;5154944;27;20095;-80
2021/07/08 08:44:54;;;;;;;4.82;2.40;;;;;;;19.95;86.77;99315.88;5154987;27;20055;-80
2021/07/08 08:47:21;;;;;;;5.32;2.50;;;;;;;20.26;83.58;99316.50;5154823;27;20042;-80
2021/07/08 08:49:48;;;;;;;4.97;2.55;;;;;;;20.18;84.15;99318.84;5154210;27;20111;-80
2021/07/08 08:52:15;;;;;;;2.58;2.00;;;;;;;20.46;82.54;99335.44;5154398;27;20051;-80
2021/07/08 08:54:43;;;;;;;2.88;2.00;;;;;;;20.71;85.03;99328.72;5154625;27;20051;-80
2021/07/08 08:57:12;;;;;;;2.63;2.30;;;;;;;20.87;83.52;99340.91;5154898;27;20481;-80
2021/07/08 08:59:38;;;;;;;3.53;1.90;;;;;;;21.02;80.22;99330.13;5154597;27;20049;-80
2021/07/08 09:02:17;;;;;;;2.83;1.48;;;;;;;21.00;77.76;99328.69;5154326;27;20466;-80
2021/07/08 09:04:44;;;;;;;3.70;1.80;;;;;;;21.18;80.45;99328.47;5154013;27;20047;-80
2021/07/08 09:07:31;;;;;;;3.33;1.85;;;;;;;21.45;76.72;99316.72;5154812;27;20388;-80
2021/07/08 09:10:01;;;;;;;2.50;1.77;;;;;;;21.52;75.47;99314.66;5154603;27;20068;-80
2021/07/08 09:12:29;;;;;;;2.20;1.85;;;;;;;21.64;74.95;99319.25;5154471;27;20489;-80
2021/07/08 09:15:17;;;;;;;3.25;1.95;;;;;;;21.81;73.93;99325.59;5154462;27;20046;-81
2021/07/08 09:17:45;;;;;;;2.45;1.58;;;;;;;21.91;75.00;99333.22;5154276;27;20511;-81
2021/07/08 09:20:14;;;;;;;3.33;1.73;;;;;;;21.98;74.03;99319.16;5154352;27;20119;-81
2021/07/08 09:22:41;;;;;;;3.40;2.00;;;;;;;22.07;71.18;99339.78;5154501;27;20404;-81
2021/07/08 09:25:25;;;;;;;1.95;1.50;;;;;;;22.00;73.67;99344.69;5154200;27;20055;-81
2021/07/08 09:28:15;;;;;;;5.38;1.50;;;;;;;22.14;69.85;99356.22;5154512;27;20047;-81
2021/07/08 09:30:43;;;;;;;2.55;1.75;;;;;;;22.06;71.63;99357.50;5154095;27;20205;-81
2021/07/08 09:33:35;;;;;;;7.05;2.55;;;;;;;22.32;72.57;99361.47;5153951;27;20055;-80
2021/07/08 09:36:13;;;;;;;2.08;1.45;;;;;;;22.39;70.97;99361.28;5146844;27;20057;-81
2021/07/08 09:38:42;;;;;;;2.67;1.55;;;;;;;22.32;71.63;99361.47;5154400;27;20054;-81
2021/07/08 09:41:12;;;;;;;3.47;3.03;;;;;;;22.14;71.82;99350.69;5153174;27;20099;-81
2021/07/08 09:43:41;;;;;;;3.10;1.65;;;;;;;21.82;72.11;99346.63;5153634;27;20057;-81
2021/07/08 09:46:10;;;;;;;1.70;1.60;;;;;;;21.65;71.77;99363.28;5154246;27;20050;-81
2021/07/08 09:48:37;;;;;;;1.80;1.40;;;;;;;21.47;71.56;99339.44;5153863;27;20058;-81
2021/07/08 09:51:04;;;;;;;5.65;1.60;;;;;;;21.58;69.76;99342.41;5152878;27;20047;-81
2021/07/08 09:53:31;;;;;;;2.13;1.92;;;;;;;21.94;70.78;99352.06;5152527;27;20049;-81
2021/07/08 09:56:03;;;;;;;3.08;1.75;;;;;;;22.09;71.88;99340.38;5153786;27;20055;-80
2021/07/08 09:58:31;;;;;;;3.05;1.70;;;;;;;22.02;69.93;99348.03;5154118;27;20289;-81
2021/07/08 10:01:12;;;;;;;1.98;1.70;;;;;;;21.84;70.96;99349.16;5154017;27;20042;-81
2021/07/08 10:03:40;;;;;;;2.67;1.75;;;;;;;21.53;71.62;99335.69;5152837;27;20500;-81
2021/07/08 10:06:08;;;;;;;3.90;1.90;;;;;;;21.92;70.36;99340.44;5153786;27;20042;-81
2021/07/08 10:08:37;;;;;;;1.77;1.63;;;;;;;21.92;71.57;99341.25;5153052;27;20053;-80
2021/07/08 10:11:04;;;;;;;1.63;1.52;;;;;;;22.10;71.99;99340.13;5152667;27;20422;-80
2021/07/08 10:13:32;;;;;;;4.13;1.83;;;;;;;22.06;71.27;99321.50;5153555;27;20104;-80
2021/07/08 10:16:04;;;;;;;3.38;1.90;;;;;;;21.97;70.04;99332.19;5153233;27;20054;-80
2021/07/08 10:18:33;;;;;;;3.30;1.70;;;;;;;22.08;69.49;99331.22;5153871;27;20463;-79
2021/07/08 10:21:00;;;;;;;2.20;2.00;;;;;;;22.08;72.81;99336.75;5153011;27;20446;-80
2021/07/08 10:23:28;;;;;;;4.40;1.73;;;;;;;21.98;72.03;99342.16;5153153;27;20046;-80
2021/07/08 10:25:55;;;;;;;2.75;1.75;;;;;;;21.87;70.59;99338.41;5153295;27;20076;-80
2021/07/08 10:28:23;;;;;;;4.20;1.70;;;;;;;21.96;70.57;99315.84;5153608;27;20042;-80
2021/07/08 10:30:52;;;;;;;3.58;1.73;;;;;;;22.05;71.12;99311.53;5153601;27;20099;-81
2021/07/08 10:33:20;;;;;;;2.53;1.55;;;;;;;22.19;70.11;99326.66;5152009;27;20138;-80
2021/07/08 10:35:49;;;;;;;2.25;1.80;;;;;;;22.51;68.04;99311.28;5153615;27;20435;-80
2021/07/08 10:38:43;;;;;;;5.05;2.08;;;;;;;22.31;67.77;99304.41;5152855;27;20458;-80
2021/07/08 10:41:43;;;;;;;2.88;1.75;;;;;;;22.62;66.30;99307.50;5153146;27;20042;-80
2021/07/08 10:44:43;;;;;;;3.17;1.67;;;;;;;22.84;67.34;99310.25;5148261;27;20058;-80
2021/07/08 10:47:42;;;;;;;2.50;1.90;;;;;;;22.93;67.37;99293.97;5153328;27;20127;-80
2021/07/08 10:50:38;;;;;;;2.70;1.67;;;;;;;23.16;68.53;99290.03;5153095;27;20137;-80
2021/07/08 10:53:26;;;;;;;1.60;1.50;;;;;;;23.28;64.85;99293.44;5152453;27;20099;-80
2021/07/08 10:55:57;;;;;;;2.97;2.00;;;;;;;23.44;64.44;99307.44;5152777;27;20374;-80
2021/07/08 10:58:46;;;;;;;5.50;1.70;;;;;;;22.92;62.58;99317.25;5153028;27;20074;-80
2021/07/08 11:01:44;;;;;;;6.10;4.07;;;;;;;22.93;64.32;99322.53;5148756;27;20046;-80
2021/07/08 11:04:13;;;;;;;2.72;1.80;;;;;;;22.79;65.46;99326.81;5152665;27;20047;-80
2021/07/08 11:06:42;;;;;;;2.63;2.00;;;;;;;22.73;67.23;99325.94;5152857;27;20436;-80
2021/07/08 11:09:21;;;;;;;2.65;1.85;;;;;;;22.63;66.58;99342.44;5153102;27;20053;-80
2021/07/08 11:12:05;;;;;;;2.50;1.90;;;;;;;22.47;71.74;99335.88;5152192;27;20046;-81
2021/07/08 11:14:39;;;;;;;2.17;1.77;;;;;;;22.33;70.49;99354.00;5151996;27;20401;-80
2021/07/08 11:17:17;;;;;;;1.80;1.70;;;;;;;22.19;68.93;99362.66;5153239;27;20047;-80
2021/07/08 11:19:47;;;;;;;2.33;1.73;;;;;;;22.03;68.40;99358.84;5153089;27;20103;-80
2021/07/08 11:22:27;;;;;;;2.17;1.70;;;;;;;21.88;71.48;99339.25;5152812;27;20039;-81
2021/07/08 11:24:55;;;;;;;2.90;1.80;;;;;;;22.04;71.05;99348.59;5152419;27;20070;-81
2021/07/08 11:27:45;;;;;;;2.78;2.08;;;;;;;21.96;66.94;99337.97;5155256;27;20049;-81
2021/07/08 11:30:33;;;;;;;;;;;;;;;22.15;67.71;99335.75;5157360;27;20401;-79
2021/07/08 11:33:05;;;;;;;4.32;1.95;;;;;;;22.24;66.66;99328.66;5150919;27;20037;-81
2021/07/08 11:35:35;;;;;;;2.72;1.83;;;;;;;22.48;65.75;99329.25;5156352;27;20043;-80
2021/07/08 11:38:06;;;;;;;2.53;2.13;;;;;;;22.83;64.68;99322.41;5156538;27;20129;-80
2021/07/08 11:40:37;;;;;;;4.57;1.85;;;;;;;22.57;63.29;99319.38;5156324;27;20046;-79
2021/07/08 11:43:15;;;;;;;2.00;1.85;;;;;;;22.58;63.68;99323.84;5156128;27;20047;-80
2021/07/08 11:45:43;;;;;;;2.00;1.80;;;;;;;22.49;64.97;99336.44;5156027;27;20054;-81
2021/07/08 11:48:09;;;;;;;3.05;2.13;;;;;;;22.66;63.04;99338.28;5156238;27;20043;-80
2021/07/08 11:50:38;;;;;;;3.47;2.22;;;;;;;22.43;64.09;99335.56;5156130;27;20091;-79
2021/07/08 11:53:10;;;;;;;4.20;2.28;;;;;;;22.52;64.50;99330.41;5155873;27;20058;-79
2021/07/08 11:55:39;;;;;;;2.70;1.65;;;;;;;22.29;64.10;99328.72;5155878;27;20275;-79
2021/07/08 11:58:11;;;;;;;2.95;1.83;;;;;;;22.52;64.19;99312.94;5156020;27;20046;-79
2021/07/08 12:00:40;;;;;;;2.83;1.90;;;;;;;22.75;63.20;99320.97;5155991;27;20054;-79
2021/07/08 12:03:26;;;;;;;3.90;1.70;;;;;;;23.03;62.08;99302.34;5155454;27;20053;-80
2021/07/08 12:05:59;;;;;;;1.90;1.50;;;;;;;22.93;61.11;99303.13;5155956;27;20103;-80
2021/07/08 12:08:29;;;;;;;6.55;1.70;;;;;;;22.93;61.63;99293.97;5155818;27;20058;-80
2021/07/08 12:11:09;;;;;;;1.92;1.73;;;;;;;23.31;60.83;99298.47;5155907;27;20046;-80
2021/07/08 12:13:39;;;;;;;2.55;1.50;;;;;;;23.13;61.84;99299.72;5154939;27;20135;-79
2021/07/08 12:16:08;;;;;;;2.42;1.60;;;;;;;23.21;63.35;99303.09;5155563;27;20050;-80
2021/07/08 12:18:49;;;;;;;1.70;1.60;;;;;;;23.19;60.71;99286.72;5155779;27;20513;-80
2021/07/08 12:21:25;;;;;;;2.45;1.73;;;;;;;23.30;60.21;99305.09;5135343;27;20058;-79
2021/07/08 12:23:55;;;;;;;8.70;1.70;;;;;;;22.89;59.98;99287.28;5149321;27;20047;-80
2021/07/08 12:26:28;;;;;;;6.75;2.40;;;;;;;22.76;65.65;99311.56;5155762;27;20054;-79
2021/07/08 12:29:19;;;;;;;5.65;1.80;;;;;;;22.44;70.25;99317.00;5155485;27;20099;-80
2021/07/08 12:31:49;;;;;;;2.00;0.95;;;;;;;21.72;72.33;99321.59;5155705;27;20055;-80
2021/07/08 12:34:18;;;;;;;0.63;0.63;;;;;;;21.63;74.68;99307.34;5155000;27;20047;-79
2021/07/08 12:36:45;;;;;;;3.30;0.90;;;;;;;21.15;78.37;99298.56;5155209;27;20065;-80
2021/07/08 12:39:16;;;;;;;3.58;1.23;;;;;;;21.31;80.21;99315.41;5155113;27;20431;-80
2021/07/08 12:41:45;;;;;;;5.85;1.42;;;;;;;21.22;81.70;99304.75;5155114;27;20401;-80
2021/07/08 12:44:13;;;;;;;11.37;2.17;;;;;;;21.12;83.23;99273.34;5154865;27;20368;-79
2021/07/08 12:46:40;;;;;;;4.35;1.25;;;;;;;20.92;79.36;99260.03;5154656;27;20482;-79
2021/07/08 12:49:09;;;;;;;2.67;1.20;;;;;;;20.71;82.37;99259.69;5155578;27;20042;-78
2021/07/08 12:51:36;;;;;;;3.90;1.30;;;;;;;20.65;82.52;99249.59;5154057;27;20410;-79
2021/07/08 12:54:03;;;;;;;3.50;1.42;;;;;;;20.74;82.61;99261.09;5155173;27;20043;-79
2021/07/08 12:56:32;;;;;;;3.65;1.50;;;;;;;20.78;83.44;99257.59;5154372;27;20051;-78
2021/07/08 12:59:00;;;;;;;2.58;1.27;;;;;;;21.08;82.08;99248.16;5155136;27;20101;-79
2021/07/08 13:01:29;;;;;;;3.15;1.40;;;;;;;21.10;82.65;99245.97;5155089;27;20050;-78
2021/07/08 13:03:56;;;;;;;2.00;1.35;;;;;;;21.11;82.49;99244.06;5154540;27;20266;-78
2021/07/08 13:06:25;;;;;;;2.45;1.40;;;;;;;20.77;83.18;99244.03;5154220;27;20047;-78
2021/07/08 13:09:05;;;;;;;4.53;1.65;;;;;;;20.57;84.09;99242.56;5154604;27;20481;-78
2021/07/08 13:11:33;;;;;;;3.92;1.52;;;;;;;20.84;84.28;99245.53;5154895;27;20062;-78
2021/07/08 13:14:22;;;;;;;1.98;1.50;;;;;;;20.59;83.01;99245.06;5153912;27;20050;-80
2021/07/08 13:17:07;;;;;;;2.28;1.50;;;;;;;20.82;81.69;99257.94;5154296;27;20050;-78
2021/07/08 13:19:36;;;;;;;5.88;1.33;;;;;;;20.84;81.55;99261.28;5154359;27;20062;-77
2021/07/08 13:22:13;;;;;;;2.92;1.55;;;;;;;20.82;82.39;99267.06;5154451;27;20058;-79
2021/07/08 13:24:40;;;;;;;2.92;1.20;;;;;;;20.69;82.47;99262.69;5153904;27;20043;-78
2021/07/08 13:27:08;;;;;;;3.95;1.40;;;;;;;21.04;82.26;99283.72;5153861;27;20047;-78
2021/07/08 13:29:36;;;;;;;4.80;1.70;;;;;;;21.29;80.50;99278.88;5154284;27;20054;-79
2021/07/08 13:32:16;;;;;;;2.10;1.58;;;;;;;21.44;78.21;99276.34;5153486;27;20124;-80
2021/07/08 13:34:46;;;;;;;4.15;1.45;;;;;;;21.58;79.06;99287.91;5141272;27;21105;-78
2021/07/08 13:37:21;;;;;;;2.97;1.60;;;;;;;21.46;78.96;99298.22;5152953;27;20133;-78
2021/07/08 13:39:48;;;;;;;3.30;1.13;;;;;;;21.56;78.79;99290.94;5153508;27;20118;-78
2021/07/08 13:42:23;;;;;;;1.08;0.90;;;;;;;21.65;73.41;99304.31;5153298;27;20047;-79
2021/07/08 13:44:50;;;;;;;1.52;1.13;;;;;;;21.59;77.33;99311.72;5139362;27;20042;-79
2021/07/08 13:47:24;;;;;;;2.75;1.10;;;;;;;21.47;74.20;99289.66;5152654;27;20057;-78
2021/07/08 13:49:52;;;;;;;1.80;0.90;;;;;;;21.67;73.93;99291.09;5152156;27;20138;-77
2021/07/08 13:52:20;;;;;;;1.40;1.10;;;;;;;21.77;72.49;99285.72;5153510;27;20143;-77
2021/07/08 13:54:46;;;;;;;1.75;0.73;;;;;;;22.04;73.75;99283.00;5152971;27;20054;-78
2021/07/08 13:57:15;;;;;;;0.80;0.80;;;;;;;22.17;71.52;99269.88;5153380;27;20482;-78
2021/07/08 13:59:43;;;;;;;4.13;0.90;;;;;;;22.45;70.92;99257.75;5152765;27;20437;-78
2021/07/08 14:02:13;;;;;;;3.42;0.90;;;;;;;22.91;70.71;99262.88;5153425;27;20129;-78
2021/07/08 14:04:42;;;;;;;3.50;1.00;;;;;;;22.40;69.58;99255.78;5152233;27;20046;-78
2021/07/08 14:07:08;;;;;;;12.73;1.63;;;;;;;22.83;68.03;99249.53;5152951;27;20082;-78
2021/07/08 14:09:35;;;;;;;1.13;1.02;;;;;;;22.87;67.08;99254.28;5152326;27;20058;-78
2021/07/08 14:12:02;;;;;;;0.93;0.93;;;;;;;22.79;66.71;99246.44;5152955;27;20405;-78
2021/07/08 14:14:32;;;;;;;1.73;0.75;;;;;;;22.67;67.88;99229.97;5153217;27;20047;-78
2021/07/08 14:17:05;;;;;;;0.68;0.68;;;;;;;22.72;69.50;99240.28;5152771;27;20046;-78
2021/07/08 14:19:32;;;;;;;1.00;0.85;;;;;;;22.23;70.27;99236.44;5139179;27;20051;-78
2021/07/08 14:21:59;;;;;;;1.00;0.90;;;;;;;22.19;70.62;99215.91;5152575;27;20107;-78
2021/07/08 14:24:25;;;;;;;2.10;1.13;;;;;;;21.66;69.55;99215.53;5152951;27;20223;-78
2021/07/08 14:26:52;;;;;;;1.23;0.98;;;;;;;21.77;70.23;99222.06;5152656;27;20054;-77
2021/07/08 14:29:19;;;;;;;1.00;0.88;;;;;;;21.82;70.57;99213.81;5151858;27;20382;-77
2021/07/08 14:31:46;;;;;;;1.73;1.05;;;;;;;22.04;71.59;99216.59;5152936;27;20230;-78
2021/07/08 14:34:14;;;;;;;1.85;0.80;;;;;;;21.92;69.78;99211.19;5152180;27;20141;-78
2021/07/08 14:36:40;;;;;;;1.15;0.90;;;;;;;22.09;68.17;99219.41;5152454;27;20550;-78
2021/07/08 14:39:07;;;;;;;1.90;0.85;;;;;;;22.09;67.77;99218.56;5152724;27;20050;-78
2021/07/08 14:41:43;;;;;;;2.70;0.90;;;;;;;22.22;68.08;99211.78;5152433;27;20043;-78
2021/07/08 14:44:18;;;;;;;1.15;1.00;;;;;;;22.16;67.96;99198.97;5151167;27;20099;-78
2021/07/08 14:46:45;;;;;;;1.25;1.00;;;;;;;22.40;69.09;99191.22;5153101;27;20042;-77
2021/07/08 14:49:12;;;;;;;1.38;1.20;;;;;;;22.92;66.43;99200.81;5152154;27;20483;-77
2021/07/08 14:51:40;;;;;;;1.58;0.95;;;;;;;22.97;66.03;99209.16;5151957;27;20042;-77
2021/07/08 14:54:07;;;;;;;2.63;0.88;;;;;;;23.12;65.34;99217.66;5152393;27;20051;-78
2021/07/08 14:56:34;;;;;;;1.40;0.73;;;;;;;23.11;64.81;99207.66;5153125;27;20051;-78
2021/07/08 14:59:00;;;;;;;1.73;0.88;;;;;;;23.21;65.46;99226.28;5152242;27;20046;-78
2021/07/08 15:01:27;;;;;;;3.15;1.00;;;;;;;22.85;64.86;99219.59;5153150;27;20103;-78
2021/07/08 15:03:54;;;;;;;0.95;0.70;;;;;;;22.68;66.79;99209.50;5156098;27;20091;-78
2021/07/08 15:06:22;;;;;;;0.95;0.85;;;;;;;22.43;67.12;99194.31;5156312;27;20580;-78
2021/07/08 15:08:51;;;;;;;0.77;0.77;;;;;;;22.74;67.69;99200.13;5156255;27;20042;-78
2021/07/08 15:11:17;;;;;;;0.60;0.60;;;;;;;23.06;63.96;99192.88;5155415;27;20054;-78
2021/07/08 15:13:44;;;;;;;0.95;0.70;;;;;;;22.92;64.27;99195.28;5155755;27;20469;-78
2021/07/08 15:16:11;;;;;;;0.70;0.70;;;;;;;23.34;63.04;99197.25;5156583;27;20043;-78
2021/07/08 15:18:38;;;;;;;2.05;0.77;;;;;;;23.45;62.50;99198.16;5155753;27;20042;-78
2021/07/08 15:21:05;;;;;;;0.70;0.70;;;;;;;23.26;62.24;99190.28;5156023;27;20077;-77
2021/07/08 15:23:32;;;;;;;0.60;0.60;;;;;;;23.57;62.01;99189.59;5156368;27;20043;-78
2021/07/08 15:26:00;;;;;;;1.92;0.50;;;;;;;23.23;62.12;99193.59;5156183;27;20053;-78
2021/07/08 15:28:27;;;;;;;0.88;0.88;;;;;;;23.04;62.95;99195.09;5156168;27;20490;-78
2021/07/08 15:30:57;;;;;;;2.35;0.65;;;;;;;22.84;62.44;99199.38;5156764;27;20046;-79
2021/07/08 15:33:25;;;;;;;2.60;0.60;;;;;;;23.10;62.16;99202.38;5154172;27;20505;-79
2021/07/08 15:35:52;;;;;;;4.32;0.75;;;;;;;23.09;62.88;99203.44;5156078;27;20508;-79
2021/07/08 15:38:20;;;;;;;2.70;0.80;;;;;;;22.83;63.55;99206.00;5155908;27;20054;-78
2021/07/08 15:40:46;;;;;;;1.00;0.82;;;;;;;22.63;64.92;99215.81;5154700;27;20051;-79
2021/07/08 15:43:14;;;;;;;1.90;1.00;;;;;;;22.65;65.46;99210.03;5154035;27;20046;-80
2021/07/08 15:45:41;;;;;;;1.85;0.70;;;;;;;22.82;64.78;99201.56;5155582;27;20464;-77
2021/07/08 15:48:08;;;;;;;1.33;0.90;;;;;;;23.06;64.28;99209.50;5155805;27;20376;-78
2021/07/08 15:50:38;;;;;;;1.27;0.70;;;;;;;23.00;64.28;99205.03;5155599;27;20091;-79
2021/07/08 15:53:13;;;;;;;;;;;;;;;23.45;61.98;99204.50;5156226;27;20125;-78
2021/07/08 15:55:40;;;;;;;2.30;0.70;;;;;;;23.37;60.75;99193.94;5154717;27;19926;-78
2021/07/08 15:58:07;;;;;;;0.80;0.80;;;;;;;23.30;60.90;99202.50;5155935;27;20057;-78
2021/07/08 16:00:35;;;;;;;1.27;0.77;;;;;;;23.25;62.29;99219.09;5154812;27;20049;-78
2021/07/08 16:03:04;;;;;;;5.90;0.70;;;;;;;23.07;62.74;99202.88;5154849;27;20050;-78
2021/07/08 16:05:31;;;;;;;1.33;0.70;;;;;;;22.60;63.77;99216.34;5151195;27;20589;-79
2021/07/08 16:07:57;;;;;;;1.00;0.70;;;;;;;22.16;64.08;99212.81;5135382;27;20061;-82
2021/07/08 16:10:25;;;;;;;0.93;0.90;;;;;;;22.24;64.70;99213.19;5149477;27;20099;-77
2021/07/08 16:12:53;;;;;;;4.75;1.35;;;;;;;22.20;65.51;99208.44;5153938;27;20039;-78
2021/07/08 16:15:20;;;;;;;1.30;0.73;;;;;;;22.26;65.18;99207.41;5155379;27;20095;-77
2021/07/08 16:17:48;;;;;;;1.95;0.90;;;;;;;22.20;65.51;99208.44;5154146;27;20541;-79
2021/07/08 16:20:15;;;;;;;1.17;1.08;;;;;;;21.83;66.89;99214.63;5155021;27;20053;-78
2021/07/08 16:22:44;;;;;;;2.00;0.82;;;;;;;21.78;68.74;99214.59;5154628;27;20043;-78
2021/07/08 16:25:11;;;;;;;4.57;1.15;;;;;;;22.02;69.72;99232.59;5154704;27;20137;-79
2021/07/08 16:27:38;;;;;;;1.80;1.13;;;;;;;21.83;69.50;99234.00;5155359;27;20459;-78
2021/07/08 16:30:08;;;;;;;1.67;1.30;;;;;;;21.84;70.36;99219.09;5155159;27;20043;-78
2021/07/08 16:32:35;;;;;;;1.65;1.27;;;;;;;22.06;69.73;99231.00;5154581;27;20066;-79
2021/07/08 16:35:04;;;;;;;2.35;1.20;;;;;;;22.14;69.16;99220.56;5153342;27;20414;-79
2021/07/08 16:37:31;;;;;;;1.75;1.00;;;;;;;22.31;68.98;99226.00;5155028;27;20486;-79
2021/07/08 16:39:57;;;;;;;1.15;1.00;;;;;;;22.23;68.25;99208.75;5154770;27;20144;-79
2021/07/08 16:42:24;;;;;;;1.70;1.10;;;;;;;22.08;68.63;99214.13;5154284;27;20047;-78
2021/07/08 16:44:51;;;;;;;1.45;1.13;;;;;;;22.01;69.73;99225.41;5133606;27;20485;-79
2021/07/08 16:47:18;;;;;;;2.88;1.25;;;;;;;21.76;71.14;99228.69;5148632;27;20050;-78
2021/07/08 16:49:45;;;;;;;3.17;1.73;;;;;;;21.80;70.09;99220.69;5155033;27;20334;-79
2021/07/08 16:52:13;;;;;;;1.20;1.10;;;;;;;21.62;70.91;99225.47;5153979;27;20541;-79
2021/07/08 16:54:40;;;;;;;2.20;1.48;;;;;;;21.32;71.09;99215.63;5154101;27;20497;-78
2021/07/08 16:57:09;;;;;;;2.22;1.60;;;;;;;21.44;71.98;99231.25;5154977;27;20039;-78
2021/07/08 16:59:41;;;;;;;1.50;1.40;;;;;;;21.40;72.18;99233.69;5154123;27;20043;-78
2021/07/08 17:02:08;;;;;;;1.50;1.40;;;;;;;21.06;73.31;99222.66;5153709;27;20516;-79
2021/07/08 17:04:35;;;;;;;2.38;1.40;;;;;;;21.17;72.63;99224.50;5153720;27;20070;-79
2021/07/08 17:07:02;;;;;;;2.10;1.25;;;;;;;21.17;72.58;99238.34;5155103;27;20050;-79
2021/07/08 17:09:35;;;;;;;1.98;1.40;;;;;;;21.16;72.48;99235.81;5153732;27;20489;-79
2021/07/08 17:12:04;;;;;;;3.05;1.77;;;;;;;21.17;72.50;99230.03;5154343;27;20493;-79
2021/07/08 17:14:31;;;;;;;2.35;1.40;;;;;;;20.91;73.58;99227.97;5153166;27;20047;-79
2021/07/08 17:17:07;;;;;;;1.73;1.20;;;;;;;20.75;74.06;99211.13;5152951;27;20061;-78
2021/07/08 17:19:37;;;;;;;2.15;1.40;;;;;;;20.87;74.33;99238.69;5153811;27;20047;-78
2021/07/08 17:22:05;;;;;;;2.63;1.30;;;;;;;20.61;74.78;99227.16;5154068;27;20046;-79
2021/07/08 17:24:35;;;;;;;4.70;1.55;;;;;;;20.80;74.81;99249.06;5152929;27;20504;-79
2021/07/08 17:27:05;;;;;;;2.45;1.60;;;;;;;20.68;75.66;99238.94;5153470;27;20047;-79
2021/07/08 17:29:32;;;;;;;2.55;1.60;;;;;;;20.65;76.26;99255.97;5153975;27;20047;-78
2021/07/08 17:32:00;;;;;;;3.72;1.75;;;;;;;20.69;76.55;99259.09;5153385;27;20049;-79
2021/07/08 17:34:27;;;;;;;3.63;1.30;;;;;;;20.60;74.90;99244.00;5153187;27;20438;-79
2021/07/08 17:36:54;;;;;;;2.53;1.10;;;;;;;20.52;74.97;99254.34;5152201;27;20401;-78
2021/07/08 17:39:21;;;;;;;1.55;1.20;;;;;;;20.61;74.61;99259.47;5153969;27;20054;-79
2021/07/08 17:41:50;;;;;;;1.25;1.00;;;;;;;20.50;74.35;99251.00;5153214;27;20070;-79
2021/07/08 17:44:17;;;;;;;2.53;1.00;;;;;;;20.39;73.96;99262.94;5152704;27;20122;-79
2021/07/08 17:46:44;;;;;;;4.13;1.23;;;;;;;20.31;74.45;99260.59;5153079;27;20053;-79
2021/07/08 17:49:11;;;;;;;1.25;0.90;;;;;;;20.10;75.25;99273.16;5153285;27;20050;-78
2021/07/08 17:51:38;;;;;;;1.30;1.17;;;;;;;19.98;76.26;99284.22;5153042;27;20062;-78
2021/07/08 17:54:05;;;;;;;1.38;1.27;;;;;;;19.92;76.95;99294.28;5152831;27;20046;-79
2021/07/08 17:56:31;;;;;;;2.03;1.08;;;;;;;19.83;77.63;99295.75;5153400;27;20497;-79
2021/07/08 17:59:00;;;;;;;4.30;1.02;;;;;;;19.79;78.06;99278.84;5153333;27;20501;-79
2021/07/08 18:01:31;;;;;;;1.63;1.20;;;;;;;19.86;78.03;99286.13;5152683;27;20046;-79
2021/07/08 18:03:58;;;;;;;2.28;1.20;;;;;;;19.86;78.94;99287.00;5153120;27;20095;-79
2021/07/08 18:06:25;;;;;;;5.82;1.95;;;;;;;19.84;78.85;99275.34;5152790;27;20458;-79
2021/07/08 18:08:54;;;;;;;1.60;1.50;;;;;;;19.70;79.01;99257.38;5151275;27;20042;-79
2021/07/08 18:11:21;;;;;;;3.17;1.20;;;;;;;19.64;79.26;99264.69;5152578;27;20062;-79
2021/07/08 18:13:48;;;;;;;1.30;1.20;;;;;;;19.58;79.79;99257.38;5152333;27;20134;-79
2021/07/08 18:16:16;;;;;;;3.60;1.42;;;;;;;19.69;79.54;99267.56;5151938;27;20047;-79
2021/07/08 18:18:44;;;;;;;1.98;1.33;;;;;;;19.68;79.57;99254.84;5151970;27;20402;-78
2021/07/08 18:21:11;;;;;;;1.60;1.30;;;;;;;19.77;79.52;99261.69;5152240;27;20451;-78
2021/07/08 18:23:38;;;;;;;2.42;1.45;;;;;;;19.67;79.68;99257.84;5151885;27;20043;-78
2021/07/08 18:26:05;;;;;;;2.30;1.25;;;;;;;19.64;80.10;99250.91;5153043;27;20058;-79
2021/07/08 18:28:32;;;;;;;3.75;1.58;;;;;;;19.59;80.00;99248.03;5151706;27;20042;-78
2021/07/08 18:30:59;;;;;;;1.75;1.25;;;;;;;19.74;79.77;99262.16;5153005;27;20069;-79